createdAt,value
2018-02-04T00:00:53.800Z,11.60
2018-02-04T00:03:22.260Z,11.60
2018-02-04T00:05:50.245Z,11.87
2018-02-04T00:08:18.462Z,12.65
2018-02-04T00:10:46.495Z,11.40
2018-02-04T00:13:14.496Z,88.80
2018-02-04T00:15:42.529Z,48.33
2018-02-04T00:18:10.547Z,69.83
2018-02-04T00:20:38.528Z,65.07
2018-02-04T00:23:06.536Z,16.37
2018-02-04T00:25:34.615Z,9.60
2018-02-04T00:28:02.656Z,10.60
2018-02-04T00:30:30.655Z,10.20
2018-02-04T00:32:58.622Z,10.03
2018-02-04T00:35:26.596Z,9.40
2018-02-04T00:37:54.582Z,10.53
2018-02-04T00:40:22.565Z,9.80
2018-02-04T00:42:50.547Z,9.87
2018-02-04T00:45:19.277Z,9.30
2018-02-04T00:47:47.486Z,10.23
2018-02-04T00:50:16.048Z,9.57
2018-02-04T00:52:44.014Z,9.77
2018-02-04T00:55:12.062Z,9.20
2018-02-04T00:57:40.128Z,9.40
2018-02-04T01:00:08.092Z,9.00
2018-02-04T01:02:36.074Z,9.50
2018-02-04T01:05:04.100Z,9.60
2018-02-04T01:07:32.083Z,9.77
2018-02-04T01:10:00.069Z,11.13
2018-02-04T01:12:28.100Z,11.67
2018-02-04T01:14:56.065Z,11.87
2018-02-04T01:17:24.028Z,13.57
2018-02-04T01:19:52.014Z,11.60
2018-02-04T01:22:20.064Z,10.30
2018-02-04T01:24:48.603Z,11.00
2018-02-04T01:27:16.639Z,11.13
2018-02-04T01:29:44.629Z,9.60
2018-02-04T01:32:12.606Z,11.37
2018-02-04T01:34:40.656Z,11.17
2018-02-04T01:37:08.624Z,11.80
2018-02-04T01:39:36.679Z,10.63
2018-02-04T01:42:04.645Z,10.50
2018-02-04T01:44:32.613Z,10.10
2018-02-04T01:47:00.613Z,9.50
2018-02-04T01:49:28.805Z,9.90
2018-02-04T01:51:56.778Z,10.13
2018-02-04T01:54:24.760Z,10.90
2018-02-04T01:56:52.753Z,9.70
2018-02-04T01:59:20.745Z,8.90
2018-02-04T02:01:48.773Z,9.77
2018-02-04T02:04:16.772Z,9.67
2018-02-04T02:06:44.839Z,8.63
2018-02-04T02:09:12.809Z,9.67
2018-02-04T02:11:40.801Z,10.30
2018-02-04T02:14:08.849Z,10.00
2018-02-04T02:16:36.968Z,9.73
2018-02-04T02:19:04.984Z,10.90
2018-02-04T02:21:32.972Z,10.97
2018-02-04T02:24:00.965Z,11.77
2018-02-04T02:26:28.949Z,11.00
2018-02-04T02:28:57.592Z,10.03
2018-02-04T02:31:25.556Z,9.60
2018-02-04T02:33:53.552Z,9.60
2018-02-04T02:36:21.525Z,8.27
2018-02-04T02:38:49.639Z,8.37
2018-02-04T02:41:17.637Z,9.70
2018-02-04T02:43:45.614Z,9.77
2018-02-04T02:46:13.584Z,9.97
2018-02-04T02:48:41.564Z,8.93
2018-02-04T02:51:09.566Z,10.80
2018-02-04T02:53:37.541Z,10.57
2018-02-04T02:56:05.535Z,10.23
2018-02-04T02:58:33.532Z,10.68
2018-02-04T03:01:01.526Z,10.15
2018-02-04T03:03:29.637Z,11.12
2018-02-04T03:05:57.616Z,10.13
2018-02-04T03:08:25.633Z,10.30
2018-02-04T03:10:53.767Z,9.50
2018-02-04T03:13:21.757Z,11.10
2018-02-04T03:15:49.723Z,9.67
2018-02-04T03:18:17.823Z,10.00
2018-02-04T03:20:45.796Z,10.13
2018-02-04T03:23:14.226Z,10.82
2018-02-04T03:25:42.883Z,10.15
2018-02-04T03:28:10.866Z,11.50
2018-02-04T03:30:38.853Z,10.35
2018-02-04T03:33:06.876Z,10.00
2018-02-04T03:35:34.896Z,9.68
2018-02-04T03:38:02.882Z,10.25
2018-02-04T03:40:30.891Z,10.35
2018-02-04T03:42:58.865Z,11.37
2018-02-04T03:45:26.871Z,10.33
2018-02-04T03:47:54.872Z,10.70
2018-02-04T03:50:22.880Z,9.90
2018-02-04T03:52:50.868Z,10.53
2018-02-04T03:55:18.929Z,11.50
2018-02-04T03:57:46.957Z,11.80
2018-02-04T04:00:14.921Z,10.80
2018-02-04T04:02:42.859Z,11.82
2018-02-04T04:05:10.890Z,10.98
2018-02-04T04:07:39.093Z,11.93
2018-02-04T04:10:07.012Z,12.00
2018-02-04T04:12:34.954Z,9.93
2018-02-04T04:15:02.977Z,11.98
2018-02-04T04:17:30.893Z,12.50
2018-02-04T04:19:58.825Z,9.85
2018-02-04T04:22:26.822Z,11.45
2018-02-04T04:24:54.762Z,11.48
2018-02-04T04:27:22.718Z,12.00
2018-02-04T04:29:50.680Z,12.07
2018-02-04T04:32:18.611Z,11.23
2018-02-04T04:34:46.594Z,12.37
2018-02-04T04:37:14.560Z,11.80
2018-02-04T04:39:42.497Z,10.70
2018-02-04T04:42:10.442Z,11.48
2018-02-04T04:44:38.485Z,10.37
2018-02-04T04:47:06.406Z,11.30
2018-02-04T04:49:34.354Z,11.65
2018-02-04T04:52:02.261Z,11.85
2018-02-04T04:54:30.231Z,11.60
2018-02-04T04:56:58.157Z,12.77
2018-02-04T04:59:26.267Z,11.77
2018-02-04T05:01:54.187Z,11.07
2018-02-04T05:04:22.113Z,11.27
2018-02-04T05:06:50.125Z,11.98
2018-02-04T05:09:18.101Z,11.88
2018-02-04T05:11:46.029Z,11.27
2018-02-04T05:14:13.991Z,12.50
2018-02-04T05:16:41.932Z,10.88
2018-02-04T05:19:09.877Z,10.93
2018-02-04T05:21:37.817Z,12.52
2018-02-04T05:24:05.757Z,12.37
2018-02-04T05:26:33.707Z,13.43
2018-02-04T05:29:01.641Z,14.25
2018-02-04T05:31:29.779Z,13.05
2018-02-04T05:33:57.719Z,12.23
2018-02-04T05:36:25.666Z,13.93
2018-02-04T05:38:53.604Z,12.70
2018-02-04T05:41:21.544Z,14.73
2018-02-04T05:43:49.478Z,13.97
2018-02-04T05:46:17.376Z,12.97
2018-02-04T05:48:45.327Z,13.20
2018-02-04T05:51:13.248Z,12.70
2018-02-04T05:53:41.189Z,12.43
2018-02-04T05:56:09.165Z,11.77
2018-02-04T05:58:37.077Z,11.35
2018-02-04T06:01:05.025Z,12.77
2018-02-04T06:03:33.265Z,12.93
2018-02-04T06:06:01.365Z,11.87
2018-02-04T06:08:29.875Z,10.90
2018-02-04T06:10:58.522Z,10.60
2018-02-04T06:13:26.474Z,10.73
2018-02-04T06:15:54.424Z,121.50
2018-02-04T06:18:22.398Z,109.50
2018-02-04T06:20:50.366Z,48.30
2018-02-04T06:23:18.335Z,22.53
2018-02-04T06:25:46.913Z,11.97
2018-02-04T06:28:15.507Z,13.13
2018-02-04T06:30:43.497Z,10.80
2018-02-04T06:33:11.437Z,11.10
2018-02-04T06:35:39.364Z,12.50
2018-02-04T06:38:07.353Z,11.77
2018-02-04T06:40:35.318Z,11.20
2018-02-04T06:43:03.321Z,10.43
2018-02-04T06:45:31.260Z,11.50
2018-02-04T06:47:59.210Z,10.90
2018-02-04T06:50:27.122Z,10.63
2018-02-04T06:52:55.196Z,11.37
2018-02-04T06:55:23.221Z,9.97
2018-02-04T06:57:51.187Z,11.57
2018-02-04T07:00:19.215Z,12.20
2018-02-04T07:02:47.209Z,11.83
2018-02-04T07:05:15.870Z,11.05
2018-02-04T07:07:43.773Z,11.10
2018-02-04T07:10:11.870Z,11.73
2018-02-04T07:12:39.801Z,10.87
2018-02-04T07:15:08.142Z,12.90
2018-02-04T07:17:36.064Z,10.80
2018-02-04T07:20:04.004Z,10.63
2018-02-04T07:22:31.952Z,12.10
2018-02-04T07:25:00.005Z,11.00
2018-02-04T07:27:28.250Z,11.20
2018-02-04T07:29:56.193Z,11.57
2018-02-04T07:32:24.199Z,12.77
2018-02-04T07:34:52.155Z,11.73
2018-02-04T07:37:20.065Z,12.40
2018-02-04T07:39:48.096Z,10.80
2018-02-04T07:42:16.131Z,10.83
2018-02-04T07:44:44.046Z,12.37
2018-02-04T07:47:11.980Z,10.90
2018-02-04T07:49:39.953Z,11.03
2018-02-04T07:52:07.862Z,10.80
2018-02-04T07:54:35.774Z,9.23
2018-02-04T07:57:04.030Z,10.50
2018-02-04T07:59:31.938Z,7.97
2018-02-04T08:01:59.998Z,10.40
2018-02-04T08:04:28.064Z,11.47
2018-02-04T08:06:56.004Z,12.57
2018-02-04T08:09:23.919Z,11.70
2018-02-04T08:11:51.845Z,11.30
2018-02-04T08:14:19.763Z,10.70
2018-02-04T08:16:47.693Z,10.67
2018-02-04T08:19:15.624Z,11.47
2018-02-04T08:21:43.662Z,11.40
2018-02-04T08:24:11.608Z,11.67
2018-02-04T08:26:39.561Z,10.67
2018-02-04T08:29:07.493Z,9.90
2018-02-04T08:31:35.460Z,10.83
2018-02-04T08:34:03.526Z,11.80
2018-02-04T08:36:31.442Z,10.67
2018-02-04T08:38:59.359Z,10.20
2018-02-04T08:41:27.318Z,10.70
2018-02-04T08:43:55.365Z,9.70
2018-02-04T08:46:23.339Z,10.23
2018-02-04T08:48:51.266Z,9.10
2018-02-04T08:51:19.906Z,10.03
2018-02-04T08:53:47.828Z,9.63
2018-02-04T08:56:15.761Z,10.57
2018-02-04T08:58:43.738Z,11.17
2018-02-04T09:01:11.703Z,10.73
2018-02-04T09:03:39.787Z,10.67
2018-02-04T09:06:08.540Z,10.10
2018-02-04T09:08:36.493Z,10.43
2018-02-04T09:11:04.853Z,11.93
2018-02-04T09:13:32.811Z,10.70
2018-02-04T09:16:01.112Z,9.87
2018-02-04T09:18:29.136Z,9.10
2018-02-04T09:20:57.053Z,10.50
2018-02-04T09:23:25.094Z,11.83
2018-02-04T09:25:53.012Z,10.77
2018-02-04T09:28:20.999Z,11.13
2018-02-04T09:30:49.130Z,14.00
2018-02-04T09:33:17.125Z,11.43
2018-02-04T09:35:45.098Z,11.20
2018-02-04T09:38:13.021Z,12.13
2018-02-04T09:40:41.009Z,12.20
2018-02-04T09:43:08.976Z,13.63
2018-02-04T09:45:37.003Z,11.43
2018-02-04T09:48:04.989Z,11.97
2018-02-04T09:50:33.277Z,12.30
2018-02-04T09:53:01.213Z,11.03
2018-02-04T09:55:29.152Z,12.53
2018-02-04T09:57:57.132Z,11.53
2018-02-04T10:00:25.111Z,11.93
2018-02-04T10:02:53.038Z,12.20
2018-02-04T10:05:21.061Z,13.93
2018-02-04T10:07:49.067Z,13.30
2018-02-04T10:10:17.013Z,12.43
2018-02-04T10:12:44.941Z,11.00
2018-02-04T10:15:12.886Z,10.80
2018-02-04T10:17:40.816Z,11.07
2018-02-04T10:20:08.773Z,10.10
2018-02-04T10:22:36.916Z,10.47
2018-02-04T10:25:04.850Z,9.63
2018-02-04T10:27:32.764Z,10.70
2018-02-04T10:30:00.744Z,11.10
2018-02-04T10:32:28.685Z,11.80
2018-02-04T10:34:56.683Z,11.10
2018-02-04T10:37:24.658Z,10.03
2018-02-04T10:39:52.625Z,10.70
2018-02-04T10:42:20.573Z,9.67
2018-02-04T10:44:48.506Z,9.13
2018-02-04T10:47:16.452Z,11.13
2018-02-04T10:49:45.343Z,9.50
2018-02-04T10:52:13.261Z,9.37
2018-02-04T10:54:41.244Z,9.90
2018-02-04T10:57:09.149Z,8.60
2018-02-04T10:59:37.085Z,8.60
2018-02-04T11:02:05.008Z,8.77
2018-02-04T11:04:32.929Z,8.10
2018-02-04T11:07:00.861Z,8.33
2018-02-04T11:09:28.797Z,8.23
2018-02-04T11:11:56.760Z,8.33
2018-02-04T11:14:24.845Z,7.20
2018-02-04T11:16:52.764Z,8.90
2018-02-04T11:19:20.849Z,8.30
2018-02-04T11:21:48.741Z,8.47
2018-02-04T11:24:16.730Z,7.20
2018-02-04T11:26:44.661Z,7.30
2018-02-04T11:29:12.615Z,9.00
2018-02-04T11:31:40.579Z,7.00
2018-02-04T11:34:08.485Z,7.17
2018-02-04T11:36:36.502Z,7.63
2018-02-04T11:39:04.422Z,7.93
2018-02-04T11:41:32.390Z,6.90
2018-02-04T11:44:00.346Z,8.03
2018-02-04T11:46:28.307Z,7.60
2018-02-04T11:48:56.324Z,8.30
2018-02-04T11:51:24.328Z,7.23
2018-02-04T11:53:52.269Z,8.10
2018-02-04T11:56:20.199Z,7.87
2018-02-04T11:58:48.118Z,8.80
2018-02-04T12:01:16.184Z,9.27
2018-02-04T12:03:44.128Z,8.60
2018-02-04T12:06:12.073Z,10.27
2018-02-04T12:08:40.021Z,9.17
2018-02-04T12:11:07.961Z,9.50
2018-02-04T12:13:35.945Z,11.07
2018-02-04T12:16:04.160Z,11.27
2018-02-04T12:18:32.101Z,9.27
2018-02-04T12:21:00.031Z,10.73
2018-02-04T12:23:27.930Z,10.93
2018-02-04T12:25:55.864Z,11.37
2018-02-04T12:28:23.802Z,11.80
2018-02-04T12:30:51.769Z,12.27
2018-02-04T12:33:19.678Z,12.77
2018-02-04T12:35:47.993Z,14.40
2018-02-04T12:38:15.975Z,13.40
2018-02-04T12:40:43.853Z,15.23
2018-02-04T12:43:11.802Z,13.93
2018-02-04T12:45:39.784Z,14.40
2018-02-04T12:48:07.691Z,13.90
2018-02-04T12:50:35.689Z,17.87
2018-02-04T12:53:03.627Z,17.13
2018-02-04T12:55:31.879Z,15.10
2018-02-04T12:58:00.022Z,16.13
2018-02-04T13:00:27.960Z,15.60
2018-02-04T13:02:55.898Z,14.27
2018-02-04T13:05:23.918Z,15.30
2018-02-04T13:07:51.817Z,15.97
2018-02-04T13:10:19.725Z,15.20
2018-02-04T13:12:47.655Z,14.70
2018-02-04T13:15:15.620Z,14.93
2018-02-04T13:17:43.554Z,16.17
2018-02-04T13:20:11.529Z,15.50
2018-02-04T13:22:39.489Z,14.43
2018-02-04T13:25:07.423Z,15.90
2018-02-04T13:27:35.363Z,14.83
2018-02-04T13:30:03.314Z,15.07
2018-02-04T13:32:31.245Z,14.87
2018-02-04T13:34:59.149Z,14.83
2018-02-04T13:37:27.129Z,14.83
2018-02-04T13:39:55.295Z,15.80
2018-02-04T13:42:23.226Z,15.90
2018-02-04T13:44:51.137Z,14.93
2018-02-04T13:47:19.067Z,15.10
2018-02-04T13:49:46.993Z,14.50
2018-02-04T13:52:14.929Z,63.60
2018-02-04T13:54:42.842Z,33.60
2018-02-04T13:57:10.773Z,37.60
2018-02-04T13:59:38.764Z,36.40
2018-02-04T14:02:06.681Z,16.87
2018-02-04T14:04:34.614Z,13.33
2018-02-04T14:07:02.534Z,13.13
2018-02-04T14:09:30.457Z,14.70
2018-02-04T14:11:58.388Z,14.17
2018-02-04T14:14:26.321Z,14.93
2018-02-04T14:16:54.392Z,12.93
2018-02-04T14:19:22.439Z,12.47
2018-02-04T14:21:50.369Z,13.30
2018-02-04T14:24:18.285Z,14.87
2018-02-04T14:26:46.212Z,15.57
2018-02-04T14:29:14.181Z,13.20
2018-02-04T14:31:42.107Z,14.10
2018-02-04T14:34:10.017Z,13.43
2018-02-04T14:36:38.019Z,13.60
2018-02-04T14:39:05.966Z,12.70
2018-02-04T14:41:33.884Z,12.47
2018-02-04T14:44:01.824Z,11.97
2018-02-04T14:46:29.736Z,13.57
2018-02-04T14:48:57.689Z,13.07
2018-02-04T14:51:25.615Z,13.20
2018-02-04T14:53:53.533Z,11.97
2018-02-04T14:56:21.494Z,11.80
2018-02-04T14:58:49.415Z,12.20
2018-02-04T15:01:17.367Z,12.33
2018-02-04T15:03:45.246Z,12.70
2018-02-04T15:06:13.178Z,12.80
2018-02-04T15:08:41.088Z,12.20
2018-02-04T15:11:09.118Z,11.00
2018-02-04T15:13:37.008Z,12.57
2018-02-04T15:16:04.946Z,12.20
2018-02-04T15:18:32.868Z,11.70
2018-02-04T15:21:01.206Z,12.73
2018-02-04T15:23:29.145Z,15.63
2018-02-04T15:25:57.284Z,13.77
2018-02-04T15:28:25.775Z,13.47
2018-02-04T15:30:53.890Z,10.47
2018-02-04T15:33:21.809Z,7.23
2018-02-04T15:35:49.732Z,7.03
2018-02-04T15:38:17.660Z,7.20
2018-02-04T15:40:45.635Z,6.97
2018-02-04T15:43:13.569Z,6.77
2018-02-04T15:45:41.498Z,6.23
2018-02-04T15:48:09.416Z,6.27
2018-02-04T15:50:37.317Z,5.97
2018-02-04T15:53:05.249Z,6.67
2018-02-04T15:55:33.175Z,6.70
2018-02-04T15:58:01.091Z,5.90
2018-02-04T16:00:28.985Z,6.40
2018-02-04T16:02:56.938Z,6.13
2018-02-04T16:05:24.832Z,6.50
2018-02-04T16:07:52.773Z,7.30
2018-02-04T16:10:20.686Z,6.83
2018-02-04T16:12:48.601Z,6.60
2018-02-04T16:15:16.615Z,5.90
2018-02-04T16:17:44.535Z,6.50
2018-02-04T16:20:12.504Z,6.83
2018-02-04T16:22:40.412Z,6.03
2018-02-04T16:25:08.330Z,6.43
2018-02-04T16:27:36.264Z,5.43
2018-02-04T16:30:04.181Z,6.10
2018-02-04T16:32:32.091Z,6.20
2018-02-04T16:35:00.813Z,6.17
2018-02-04T16:37:28.855Z,6.40
2018-02-04T16:39:56.776Z,5.83
2018-02-04T16:42:24.692Z,6.13
2018-02-04T16:44:53.197Z,6.37
2018-02-04T16:47:21.483Z,6.70
2018-02-04T16:49:49.380Z,5.90
2018-02-04T16:52:17.349Z,6.77
2018-02-04T16:54:45.262Z,6.60
2018-02-04T16:57:13.196Z,6.43
2018-02-04T16:59:41.141Z,6.70
2018-02-04T17:02:09.068Z,6.47
2018-02-04T17:04:36.981Z,5.83
2018-02-04T17:07:04.899Z,5.83
2018-02-04T17:09:32.893Z,6.40
2018-02-04T17:12:00.801Z,6.10
2018-02-04T17:14:28.765Z,7.03
2018-02-04T17:16:56.708Z,6.20
2018-02-04T17:19:24.637Z,9.90
2018-02-04T17:21:52.585Z,27.17
2018-02-04T17:24:21.013Z,7.00
2018-02-04T17:26:48.925Z,6.03
2018-02-04T17:29:17.660Z,5.90
2018-02-04T17:31:45.571Z,6.87
2018-02-04T17:34:13.467Z,5.97
2018-02-04T17:36:41.386Z,5.63
2018-02-04T17:39:09.286Z,7.23
2018-02-04T17:41:38.196Z,7.13
2018-02-04T17:44:06.108Z,6.27
2018-02-04T17:46:34.093Z,5.57
2018-02-04T17:49:02.066Z,6.33
2018-02-04T17:51:30.788Z,5.23
2018-02-04T17:53:58.681Z,6.00
2018-02-04T17:56:26.662Z,6.10
2018-02-04T17:58:54.582Z,5.70
2018-02-04T18:01:22.488Z,5.10
2018-02-04T18:03:50.396Z,5.27
2018-02-04T18:06:18.369Z,5.57
2018-02-04T18:08:46.265Z,6.40
2018-02-04T18:11:14.182Z,5.50
2018-02-04T18:13:42.132Z,5.73
2018-02-04T18:16:10.099Z,4.40
2018-02-04T18:18:38.109Z,5.40
2018-02-04T18:21:06.071Z,4.80
2018-02-04T18:23:33.990Z,4.67
2018-02-04T18:26:01.968Z,4.83
2018-02-04T18:28:29.913Z,5.33
2018-02-04T18:30:57.897Z,5.93
2018-02-04T18:33:25.885Z,5.40
2018-02-04T18:35:53.802Z,4.57
2018-02-04T18:38:22.238Z,6.17
2018-02-04T18:40:50.171Z,4.37
2018-02-04T18:43:18.078Z,5.53
2018-02-04T18:45:46.109Z,5.40
2018-02-04T18:48:14.022Z,4.70
2018-02-04T18:50:41.945Z,4.30
2018-02-04T18:53:09.937Z,6.10
2018-02-04T18:55:37.877Z,6.90
2018-02-04T18:58:05.785Z,6.40
2018-02-04T19:00:33.694Z,5.97
2018-02-04T19:03:01.626Z,5.87
2018-02-04T19:05:29.569Z,5.83
2018-02-04T19:07:57.490Z,6.20
2018-02-04T19:10:25.404Z,5.60
2018-02-04T19:12:53.320Z,5.70
2018-02-04T19:15:21.212Z,5.53
2018-02-04T19:17:49.218Z,4.57
2018-02-04T19:20:17.145Z,5.30
2018-02-04T19:22:45.136Z,5.70
2018-02-04T19:25:13.027Z,5.70
2018-02-04T19:27:41.016Z,4.80
2018-02-04T19:30:08.938Z,4.83
2018-02-04T19:32:36.891Z,5.47
2018-02-04T19:35:04.806Z,5.87
2018-02-04T19:37:32.830Z,4.70
2018-02-04T19:40:00.805Z,4.77
2018-02-04T19:42:28.710Z,5.43
2018-02-04T19:44:56.745Z,4.40
2018-02-04T19:47:24.717Z,5.37
2018-02-04T19:49:52.641Z,3.90
2018-02-04T19:52:20.559Z,5.63
2018-02-04T19:54:48.475Z,4.33
2018-02-04T19:57:16.385Z,5.60
2018-02-04T19:59:44.308Z,4.47
2018-02-04T20:02:12.257Z,3.90
2018-02-04T20:04:41.090Z,3.73
2018-02-04T20:07:09.001Z,3.37
2018-02-04T20:09:36.910Z,3.73
2018-02-04T20:12:04.837Z,4.93
2018-02-04T20:14:32.831Z,4.23
2018-02-04T20:17:00.796Z,5.27
2018-02-04T20:19:28.720Z,17.67
2018-02-04T20:21:56.661Z,43.60
2018-02-04T20:24:24.626Z,23.10
2018-02-04T20:26:52.592Z,11.27
2018-02-04T20:29:20.504Z,15.80
2018-02-04T20:31:48.435Z,37.33
2018-02-04T20:34:28.034Z,21.93
2018-02-04T20:36:55.977Z,11.60
2018-02-04T20:39:24.505Z,19.70
2018-02-04T20:41:52.414Z,11.37
2018-02-04T20:44:20.345Z,15.60
2018-02-04T20:46:49.130Z,6.77
2018-02-04T20:49:17.098Z,4.20
2018-02-04T20:51:45.119Z,4.03
2018-02-04T20:54:13.164Z,5.00
2018-02-04T20:56:41.137Z,4.67
2018-02-04T20:59:09.089Z,4.33
2018-02-04T21:01:37.002Z,4.67
2018-02-04T21:04:04.918Z,3.97
2018-02-04T21:06:32.864Z,6.30
2018-02-04T21:09:00.924Z,3.50
2018-02-04T21:11:29.318Z,4.23
2018-02-04T21:13:57.229Z,4.40
2018-02-04T21:16:25.237Z,7.40
2018-02-04T21:18:53.331Z,18.37
2018-02-04T21:21:21.233Z,15.77
2018-02-04T21:23:49.153Z,9.87
2018-02-04T21:26:17.101Z,13.97
2018-02-04T21:28:45.041Z,57.70
2018-02-04T21:31:12.980Z,56.77
2018-02-04T21:33:40.913Z,10.33
2018-02-04T21:36:08.824Z,46.57
2018-02-04T21:38:36.730Z,7.80
2018-02-04T21:41:04.718Z,20.33
2018-02-04T21:43:32.629Z,17.07
2018-02-04T21:46:00.576Z,5.53
2018-02-04T21:48:28.473Z,4.17
2018-02-04T21:50:56.390Z,4.27
2018-02-04T21:53:24.313Z,5.00
2018-02-04T21:55:52.334Z,4.13
2018-02-04T21:58:20.236Z,3.47
2018-02-04T22:00:48.226Z,4.10
2018-02-04T22:03:16.145Z,3.90
2018-02-04T22:05:44.071Z,6.07
2018-02-04T22:08:12.012Z,5.40
2018-02-04T22:10:39.945Z,3.80
2018-02-04T22:13:07.864Z,4.20
2018-02-04T22:15:35.874Z,5.10
2018-02-04T22:18:04.108Z,4.23
2018-02-04T22:20:32.048Z,5.90
2018-02-04T22:22:59.965Z,4.37
2018-02-04T22:25:27.946Z,4.20
2018-02-04T22:27:55.883Z,4.53
2018-02-04T22:30:23.818Z,3.70
2018-02-04T22:32:51.721Z,54.33
2018-02-04T22:35:19.708Z,49.93
2018-02-04T22:37:47.621Z,8.67
2018-02-04T22:40:15.616Z,4.33
2018-02-04T22:42:43.548Z,4.00
2018-02-04T22:45:11.449Z,4.17
2018-02-04T22:47:39.350Z,4.30
2018-02-04T22:50:07.266Z,4.53
2018-02-04T22:52:35.201Z,3.80
2018-02-04T22:55:03.132Z,3.50
2018-02-04T22:57:31.104Z,3.97
2018-02-04T22:59:58.998Z,3.90
2018-02-04T23:02:26.942Z,3.93
2018-02-04T23:04:54.847Z,3.93
2018-02-04T23:07:22.761Z,3.37
2018-02-04T23:09:50.693Z,4.93
2018-02-04T23:12:18.612Z,4.10
2018-02-04T23:14:46.614Z,4.63
2018-02-04T23:17:15.121Z,3.40
2018-02-04T23:19:43.066Z,3.50
2018-02-04T23:22:11.001Z,3.53
2018-02-04T23:24:39.106Z,3.70
2018-02-04T23:27:07.210Z,3.80
2018-02-04T23:29:35.144Z,3.10
2018-02-04T23:32:03.070Z,2.97
2018-02-04T23:34:30.975Z,4.07
2018-02-04T23:36:58.948Z,4.20
2018-02-04T23:39:26.845Z,4.10
2018-02-04T23:41:54.925Z,4.00
2018-02-04T23:44:22.824Z,3.40
2018-02-04T23:46:50.764Z,4.17
2018-02-04T23:49:18.674Z,4.00
2018-02-04T23:51:46.609Z,4.57
2018-02-04T23:54:14.577Z,3.87
2018-02-04T23:56:42.498Z,3.57
2018-02-04T23:59:11.164Z,3.40
